createdAt,value
2022-11-10T00:02:14.715Z,67.80
2022-11-10T00:04:41.391Z,68.00
2022-11-10T00:07:08.128Z,67.10
2022-11-10T00:09:35.089Z,66.80
2022-11-10T00:12:01.765Z,67.30
2022-11-10T00:14:46.969Z,67.40
2022-11-10T00:17:13.652Z,67.70
2022-11-10T00:19:40.480Z,68.00
2022-11-10T00:22:07.158Z,67.80
2022-11-10T00:24:33.898Z,67.70
2022-11-10T00:27:00.889Z,67.80
2022-11-10T00:29:27.624Z,67.70
2022-11-10T00:31:54.344Z,67.90
2022-11-10T00:34:21.012Z,68.00
2022-11-10T00:36:47.697Z,67.70
2022-11-10T00:39:14.664Z,67.50
2022-11-10T00:41:41.366Z,67.60
2022-11-10T00:44:08.098Z,67.90
2022-11-10T00:46:34.839Z,67.70
2022-11-10T00:49:01.626Z,67.70
2022-11-10T00:51:28.836Z,67.70
2022-11-10T00:53:55.643Z,67.60
2022-11-10T00:56:22.566Z,67.70
2022-11-10T00:58:49.304Z,67.70
2022-11-10T01:01:16.736Z,67.80
2022-11-10T01:03:43.464Z,68.00
2022-11-10T01:06:13.476Z,68.20
2022-11-10T01:08:40.735Z,68.10
2022-11-10T01:11:09.332Z,68.00
2022-11-10T01:13:36.389Z,68.00
2022-11-10T01:16:06.972Z,67.90
2022-11-10T01:18:34.179Z,68.10
2022-11-10T01:21:01.060Z,68.10
2022-11-10T01:23:27.815Z,68.20
2022-11-10T01:26:02.956Z,68.20
2022-11-10T01:28:29.846Z,68.30
2022-11-10T01:31:01.512Z,68.40
2022-11-10T01:33:29.412Z,68.60
2022-11-10T01:35:58.429Z,68.40
2022-11-10T01:38:28.992Z,68.20
2022-11-10T01:40:56.076Z,68.20
2022-11-10T01:43:23.147Z,68.20
2022-11-10T01:46:02.108Z,68.40
2022-11-10T01:48:42.282Z,68.50
2022-11-10T01:51:15.733Z,68.50
2022-11-10T01:54:11.848Z,68.50
2022-11-10T01:56:45.778Z,68.70
2022-11-10T01:59:19.962Z,68.80
2022-11-10T02:01:49.196Z,68.70
2022-11-10T02:04:17.351Z,68.90
2022-11-10T02:06:45.414Z,69.00
2022-11-10T02:09:14.730Z,69.10
2022-11-10T02:11:47.546Z,69.10
2022-11-10T02:14:14.623Z,69.20
2022-11-10T02:16:41.916Z,69.40
2022-11-10T02:19:18.452Z,69.40
2022-11-10T02:21:45.114Z,69.10
2022-11-10T02:24:11.869Z,69.40
2022-11-10T02:26:42.278Z,69.60
2022-11-10T02:29:09.691Z,69.70
2022-11-10T02:31:40.393Z,69.60
2022-11-10T02:34:07.922Z,69.60
2022-11-10T02:36:37.599Z,69.60
2022-11-10T02:39:05.665Z,69.70
2022-11-10T02:42:00.539Z,69.90
2022-11-10T02:44:27.261Z,70.10
2022-11-10T02:46:53.941Z,69.80
2022-11-10T02:49:20.645Z,69.90
2022-11-10T02:51:48.819Z,70.00
2022-11-10T02:54:15.688Z,69.80
2022-11-10T02:56:42.407Z,69.60
2022-11-10T02:59:09.097Z,69.60
2022-11-10T03:01:35.863Z,69.70
2022-11-10T03:04:02.631Z,70.00
2022-11-10T03:06:29.419Z,70.10
2022-11-10T03:08:56.244Z,70.20
2022-11-10T03:11:24.920Z,70.30
2022-11-10T03:14:02.688Z,70.40
2022-11-10T03:16:30.138Z,70.30
2022-11-10T03:18:56.794Z,70.30
2022-11-10T03:21:23.537Z,70.20
2022-11-10T03:23:50.329Z,70.20
2022-11-10T03:26:17.012Z,70.20
2022-11-10T03:28:43.725Z,70.30
2022-11-10T03:31:10.459Z,70.40
2022-11-10T03:33:37.098Z,70.40
2022-11-10T03:36:04.026Z,71.30
2022-11-10T03:38:30.792Z,70.40
2022-11-10T03:41:18.177Z,70.40
2022-11-10T03:43:44.217Z,71.40
2022-11-10T03:46:10.936Z,70.70
2022-11-10T03:48:37.646Z,70.80
2022-11-10T03:51:04.360Z,71.20
2022-11-10T03:53:31.068Z,71.10
2022-11-10T03:56:01.384Z,71.10
2022-11-10T03:58:28.102Z,71.20
2022-11-10T04:00:55.144Z,71.20
2022-11-10T04:03:22.195Z,71.30
2022-11-10T04:06:07.516Z,71.30
2022-11-10T04:08:52.529Z,71.40
2022-11-10T04:11:37.722Z,71.50
2022-11-10T04:14:23.227Z,71.60
2022-11-10T04:16:49.985Z,71.50
2022-11-10T04:19:16.692Z,72.40
2022-11-10T04:21:43.446Z,71.70
2022-11-10T04:24:10.176Z,71.60
2022-11-10T04:26:40.588Z,71.50
2022-11-10T04:29:11.010Z,71.60
2022-11-10T04:31:39.425Z,71.90
2022-11-10T04:34:07.123Z,71.90
2022-11-10T04:36:35.012Z,71.90
2022-11-10T04:39:01.816Z,71.90
2022-11-10T04:41:30.116Z,72.00
2022-11-10T04:43:57.319Z,72.10
2022-11-10T04:46:32.320Z,72.10
2022-11-10T04:48:59.034Z,72.00
2022-11-10T04:51:45.105Z,72.10
2022-11-10T04:54:11.946Z,72.20
2022-11-10T04:56:40.202Z,72.20
2022-11-10T04:59:06.913Z,72.30
2022-11-10T05:01:33.653Z,72.70
2022-11-10T05:04:01.105Z,72.50
2022-11-10T05:06:27.922Z,72.50
2022-11-10T05:08:54.695Z,72.60
2022-11-10T05:11:21.368Z,72.70
2022-11-10T05:13:48.161Z,72.80
2022-11-10T05:16:14.886Z,72.80
2022-11-10T05:18:41.761Z,72.90
2022-11-10T05:21:08.525Z,72.90
2022-11-10T05:23:37.897Z,72.80
2022-11-10T05:26:09.428Z,72.90
2022-11-10T05:28:36.260Z,73.00
2022-11-10T05:31:03.114Z,72.90
2022-11-10T05:33:29.925Z,72.90
2022-11-10T05:35:56.656Z,72.90
2022-11-10T05:38:23.378Z,73.80
2022-11-10T05:40:50.133Z,73.00
2022-11-10T05:43:16.971Z,73.70
2022-11-10T05:45:43.691Z,73.00
2022-11-10T05:48:10.384Z,73.90
2022-11-10T05:50:37.051Z,72.90
2022-11-10T05:53:03.833Z,72.80
2022-11-10T05:55:30.597Z,72.90
2022-11-10T05:57:57.525Z,73.10
2022-11-10T06:00:28.647Z,73.30
2022-11-10T06:03:03.606Z,73.20
2022-11-10T06:05:34.967Z,73.20
2022-11-10T06:08:03.163Z,73.30
2022-11-10T06:10:30.336Z,73.40
2022-11-10T06:13:00.667Z,73.50
2022-11-10T06:15:27.867Z,73.60
2022-11-10T06:17:54.958Z,73.70
2022-11-10T06:20:22.196Z,73.80
2022-11-10T06:23:05.317Z,74.00
2022-11-10T06:25:35.391Z,73.90
2022-11-10T06:28:03.740Z,74.00
2022-11-10T06:30:31.472Z,74.10
2022-11-10T06:32:58.427Z,74.00
2022-11-10T06:35:26.275Z,74.20
2022-11-10T06:38:04.530Z,74.20
2022-11-10T06:40:33.231Z,74.30
2022-11-10T06:43:00.060Z,74.40
2022-11-10T06:45:30.566Z,74.50
2022-11-10T06:48:08.449Z,74.50
2022-11-10T06:50:35.314Z,74.50
2022-11-10T06:53:02.067Z,74.50
2022-11-10T06:55:29.203Z,74.50
2022-11-10T06:57:55.928Z,74.80
2022-11-10T07:00:22.728Z,74.70
2022-11-10T07:02:57.989Z,74.80
2022-11-10T07:05:24.724Z,75.50
2022-11-10T07:07:51.802Z,74.80
2022-11-10T07:10:18.725Z,74.90
2022-11-10T07:12:45.484Z,74.90
2022-11-10T07:15:12.305Z,75.00
2022-11-10T07:17:42.163Z,75.00
2022-11-10T07:20:09.413Z,75.00
2022-11-10T07:22:36.101Z,75.10
2022-11-10T07:25:02.884Z,75.10
2022-11-10T07:27:29.646Z,75.10
2022-11-10T07:29:56.483Z,75.30
2022-11-10T07:32:23.256Z,75.20
2022-11-10T07:34:49.974Z,75.30
2022-11-10T07:37:16.642Z,75.40
2022-11-10T07:39:43.396Z,75.40
2022-11-10T07:42:10.152Z,75.40
2022-11-10T07:44:36.902Z,75.40
2022-11-10T07:47:03.648Z,75.60
2022-11-10T07:49:30.339Z,75.60
2022-11-10T07:51:57.029Z,75.50
2022-11-10T07:54:23.771Z,75.60
2022-11-10T07:56:50.467Z,75.70
2022-11-10T07:59:17.146Z,75.70
2022-11-10T08:01:43.933Z,75.90
2022-11-10T08:04:10.653Z,75.90
2022-11-10T08:06:37.641Z,75.90
2022-11-10T08:09:04.454Z,76.00
2022-11-10T08:11:31.204Z,76.00
2022-11-10T08:13:57.940Z,76.00
2022-11-10T08:16:24.663Z,76.20
2022-11-10T08:18:51.433Z,76.00
2022-11-10T08:21:18.100Z,76.20
2022-11-10T08:23:44.860Z,77.10
2022-11-10T08:26:11.552Z,76.20
2022-11-10T08:28:38.248Z,76.20
2022-11-10T08:31:06.216Z,76.20
2022-11-10T08:33:33.144Z,76.30
2022-11-10T08:36:00.880Z,76.30
2022-11-10T08:38:27.600Z,76.50
2022-11-10T08:40:56.229Z,76.50
2022-11-10T08:43:23.220Z,76.60
2022-11-10T08:45:50.277Z,76.60
2022-11-10T08:48:18.912Z,76.60
2022-11-10T08:50:45.847Z,76.60
2022-11-10T08:53:21.109Z,76.70
2022-11-10T08:55:48.320Z,76.60
2022-11-10T08:58:16.457Z,76.60
2022-11-10T09:00:43.189Z,76.60
2022-11-10T09:03:14.678Z,76.60
2022-11-10T09:05:41.679Z,76.60
2022-11-10T09:08:08.558Z,76.60
2022-11-10T09:10:36.991Z,76.50
2022-11-10T09:13:04.051Z,76.60
2022-11-10T09:15:31.381Z,76.70
2022-11-10T09:18:01.815Z,76.70
2022-11-10T09:20:29.185Z,76.80
2022-11-10T09:22:55.974Z,76.80
2022-11-10T09:25:22.786Z,76.90
2022-11-10T09:27:49.556Z,77.00
2022-11-10T09:30:17.901Z,77.10
2022-11-10T09:32:46.791Z,77.00
2022-11-10T09:35:13.780Z,77.10
2022-11-10T09:37:40.751Z,77.20
2022-11-10T09:40:12.879Z,77.20
2022-11-10T09:42:40.676Z,77.40
2022-11-10T09:45:19.588Z,77.50
2022-11-10T09:47:57.262Z,77.50
2022-11-10T09:50:47.705Z,77.40
2022-11-10T09:53:21.288Z,77.30
2022-11-10T09:55:59.345Z,77.30
2022-11-10T09:58:30.030Z,77.40
2022-11-10T10:01:08.717Z,77.30
2022-11-10T10:03:35.517Z,77.40
2022-11-10T10:06:14.477Z,77.50
2022-11-10T10:08:55.842Z,77.50
2022-11-10T10:11:54.446Z,77.40
2022-11-10T10:14:38.136Z,77.40
2022-11-10T10:17:27.110Z,77.50
2022-11-10T10:20:32.344Z,77.50
2022-11-10T10:23:40.707Z,77.60
2022-11-10T10:26:15.848Z,77.70
2022-11-10T10:28:45.125Z,77.50
2022-11-10T10:31:30.615Z,77.60
2022-11-10T10:33:57.296Z,77.70
2022-11-10T10:36:25.978Z,77.80
2022-11-10T10:39:04.851Z,77.90
2022-11-10T10:41:32.806Z,77.90
2022-11-10T10:44:01.877Z,77.90
2022-11-10T10:46:32.929Z,78.00
2022-11-10T10:49:30.848Z,78.00
2022-11-10T10:52:11.341Z,77.90
2022-11-10T10:54:38.477Z,77.90
2022-11-10T10:57:21.179Z,77.90
2022-11-10T10:59:47.984Z,77.90
2022-11-10T11:02:30.582Z,78.10
2022-11-10T11:05:13.914Z,77.90
2022-11-10T11:07:40.779Z,77.90
2022-11-10T11:10:30.426Z,78.10
2022-11-10T11:13:19.883Z,78.20
2022-11-10T11:15:59.996Z,78.30
2022-11-10T11:18:27.999Z,78.30
2022-11-10T11:21:06.680Z,78.30
2022-11-10T11:23:43.006Z,78.30
2022-11-10T11:26:16.457Z,78.20
2022-11-10T11:29:01.454Z,78.20
2022-11-10T11:31:54.375Z,78.20
2022-11-10T11:34:39.981Z,78.40
2022-11-10T11:37:21.919Z,78.30
2022-11-10T11:40:22.136Z,78.40
2022-11-10T11:43:04.639Z,78.30
2022-11-10T11:45:45.940Z,78.60
2022-11-10T11:48:35.288Z,78.80
2022-11-10T11:51:23.940Z,78.90
2022-11-10T11:54:05.498Z,79.00
2022-11-10T11:56:35.172Z,78.90
2022-11-10T11:59:42.934Z,77.70
2022-11-10T12:02:21.283Z,77.60
2022-11-10T12:05:12.126Z,77.70
2022-11-10T12:07:50.205Z,77.70
2022-11-10T12:10:37.235Z,77.80
2022-11-10T12:13:30.402Z,77.70
2022-11-10T12:16:05.169Z,77.80
2022-11-10T12:18:37.731Z,77.80
2022-11-10T12:21:22.144Z,77.80
2022-11-10T12:24:14.470Z,77.80
2022-11-10T12:26:43.950Z,77.80
2022-11-10T12:29:25.907Z,78.80
2022-11-10T12:31:55.338Z,78.00
2022-11-10T12:34:36.715Z,77.90
2022-11-10T12:37:05.160Z,77.90
2022-11-10T12:39:53.870Z,77.80
2022-11-10T12:42:22.443Z,77.70
2022-11-10T12:45:02.017Z,77.90
2022-11-10T12:47:44.030Z,77.90
2022-11-10T12:50:19.798Z,78.00
2022-11-10T12:52:53.697Z,77.80
2022-11-10T12:55:21.465Z,77.70
2022-11-10T12:57:48.181Z,77.70
2022-11-10T13:00:27.988Z,77.90
2022-11-10T13:02:55.668Z,77.90
2022-11-10T13:05:38.779Z,77.90
2022-11-10T13:08:14.701Z,78.00
2022-11-10T13:10:55.871Z,78.00
2022-11-10T13:13:23.090Z,77.90
2022-11-10T13:15:57.744Z,77.90
2022-11-10T13:18:24.607Z,77.80
2022-11-10T13:20:53.081Z,77.70
2022-11-10T13:23:28.805Z,77.70
2022-11-10T13:26:03.231Z,77.60
2022-11-10T13:28:48.437Z,77.60
2022-11-10T13:31:27.279Z,77.70
2022-11-10T13:34:03.098Z,77.80
2022-11-10T13:36:43.521Z,77.80
2022-11-10T13:39:19.203Z,77.70
2022-11-10T13:41:47.200Z,77.80
2022-11-10T13:44:44.337Z,77.80
2022-11-10T13:47:15.389Z,77.80
2022-11-10T13:50:16.052Z,78.00
2022-11-10T13:53:08.838Z,78.00
2022-11-10T13:55:38.435Z,78.00
2022-11-10T13:58:05.533Z,78.10
2022-11-10T14:00:33.859Z,78.00
2022-11-10T14:03:01.914Z,78.00
2022-11-10T14:05:28.633Z,78.00
2022-11-10T14:08:20.728Z,77.90
2022-11-10T14:10:52.648Z,77.90
2022-11-10T14:13:22.940Z,77.80
2022-11-10T14:15:50.089Z,77.80
2022-11-10T14:18:21.071Z,77.70
2022-11-10T14:20:52.595Z,77.90
2022-11-10T14:23:44.892Z,77.80
2022-11-10T14:26:40.732Z,77.70
2022-11-10T14:29:29.277Z,77.70
2022-11-10T14:32:01.011Z,77.70
2022-11-10T14:34:28.021Z,77.70
2022-11-10T14:36:58.465Z,77.70
2022-11-10T14:39:30.586Z,77.60
2022-11-10T14:41:58.312Z,77.60
2022-11-10T14:44:26.525Z,78.30
2022-11-10T14:46:53.660Z,78.30
2022-11-10T14:49:24.141Z,77.50
2022-11-10T14:51:51.377Z,77.50
2022-11-10T14:54:27.623Z,77.40
2022-11-10T14:56:55.231Z,77.40
2022-11-10T14:59:22.424Z,77.40
2022-11-10T15:01:54.857Z,77.30
2022-11-10T15:04:32.879Z,77.20
2022-11-10T15:06:59.655Z,77.10
2022-11-10T15:09:32.848Z,76.80
2022-11-10T15:12:02.554Z,76.90
2022-11-10T15:14:47.524Z,76.90
2022-11-10T15:17:15.720Z,76.80
2022-11-10T15:19:45.430Z,76.60
2022-11-10T15:22:32.676Z,76.70
2022-11-10T15:25:15.540Z,76.60
2022-11-10T15:27:44.256Z,76.50
2022-11-10T15:30:23.632Z,76.30
2022-11-10T15:32:51.356Z,76.20
2022-11-10T15:35:24.239Z,76.00
2022-11-10T15:38:02.547Z,76.10
2022-11-10T15:40:30.203Z,76.00
2022-11-10T15:43:23.596Z,76.00
2022-11-10T15:45:55.389Z,75.80
2022-11-10T15:48:23.283Z,75.80
2022-11-10T15:50:51.207Z,75.70
2022-11-10T15:53:30.472Z,75.70
2022-11-10T15:55:57.241Z,75.60
2022-11-10T15:58:24.208Z,75.40
2022-11-10T16:00:51.161Z,75.40
2022-11-10T16:03:19.135Z,75.10
2022-11-10T16:05:45.885Z,75.20
2022-11-10T16:08:14.005Z,74.70
2022-11-10T16:10:50.758Z,75.40
2022-11-10T16:13:20.906Z,75.10
2022-11-10T16:15:47.899Z,74.90
2022-11-10T16:18:17.159Z,75.00
2022-11-10T16:20:43.867Z,74.90
2022-11-10T16:23:10.705Z,74.80
2022-11-10T16:25:38.014Z,74.10
2022-11-10T16:28:05.471Z,75.20
2022-11-10T16:30:33.058Z,75.10
2022-11-10T16:33:00.025Z,75.00
2022-11-10T16:35:27.079Z,74.90
2022-11-10T16:37:53.891Z,75.00
2022-11-10T16:40:22.232Z,74.90
2022-11-10T16:42:49.073Z,74.90
2022-11-10T16:45:20.785Z,74.90
2022-11-10T16:47:51.757Z,74.80
2022-11-10T16:50:35.158Z,75.10
2022-11-10T16:53:02.607Z,75.40
2022-11-10T16:55:29.557Z,75.40
2022-11-10T16:57:56.353Z,76.10
2022-11-10T17:00:23.258Z,75.40
2022-11-10T17:03:07.532Z,75.30
2022-11-10T17:05:34.556Z,75.40
2022-11-10T17:08:01.328Z,75.40
2022-11-10T17:10:28.076Z,75.50
2022-11-10T17:12:54.984Z,75.50
2022-11-10T17:15:21.746Z,75.60
2022-11-10T17:17:50.544Z,75.70
2022-11-10T17:20:34.498Z,75.80
2022-11-10T17:23:02.017Z,75.70
2022-11-10T17:25:30.025Z,75.90
2022-11-10T17:27:56.762Z,75.90
2022-11-10T17:30:23.490Z,75.90
2022-11-10T17:33:04.782Z,76.00
2022-11-10T17:35:37.589Z,76.00
2022-11-10T17:38:08.357Z,76.10
2022-11-10T17:40:35.178Z,76.20
2022-11-10T17:43:02.021Z,76.20
2022-11-10T17:45:29.988Z,76.20
2022-11-10T17:47:56.727Z,76.20
2022-11-10T17:50:23.456Z,76.40
2022-11-10T17:52:50.151Z,76.40
2022-11-10T17:55:21.598Z,76.30
2022-11-10T17:57:48.445Z,76.40
2022-11-10T18:00:15.767Z,76.40
2022-11-10T18:02:43.324Z,76.40
2022-11-10T18:05:14.401Z,76.50
2022-11-10T18:07:41.362Z,76.30
2022-11-10T18:10:10.120Z,76.20
2022-11-10T18:12:36.791Z,76.30
2022-11-10T18:15:03.657Z,76.40
2022-11-10T18:17:30.408Z,76.40
2022-11-10T18:19:57.205Z,76.10
2022-11-10T18:22:23.955Z,76.00
2022-11-10T18:24:50.696Z,76.10
2022-11-10T18:27:17.407Z,76.50
2022-11-10T18:29:44.085Z,76.70
2022-11-10T18:32:10.860Z,76.80
2022-11-10T18:34:37.607Z,76.60
2022-11-10T18:37:04.324Z,76.70
2022-11-10T18:39:31.052Z,76.80
2022-11-10T18:41:57.890Z,76.60
2022-11-10T18:44:24.647Z,76.40
2022-11-10T18:46:51.361Z,76.40
2022-11-10T18:49:18.190Z,76.40
2022-11-10T18:51:44.891Z,76.30
2022-11-10T18:54:11.711Z,76.40
2022-11-10T18:56:38.590Z,76.30
2022-11-10T18:59:05.350Z,76.50
2022-11-10T19:01:32.193Z,76.50
2022-11-10T19:03:59.112Z,76.50
2022-11-10T19:06:25.885Z,76.70
2022-11-10T19:08:52.635Z,76.70
2022-11-10T19:11:20.114Z,76.70
2022-11-10T19:13:46.875Z,76.80
2022-11-10T19:16:17.304Z,76.80
2022-11-10T19:18:44.296Z,76.80
2022-11-10T19:21:18.980Z,76.60
2022-11-10T19:23:45.894Z,76.70
2022-11-10T19:26:19.440Z,76.50
2022-11-10T19:28:48.874Z,76.60
2022-11-10T19:31:17.300Z,76.80
2022-11-10T19:33:44.720Z,76.70
2022-11-10T19:36:13.639Z,76.50
2022-11-10T19:38:41.053Z,76.50
2022-11-10T19:41:12.486Z,76.40
2022-11-10T19:43:42.411Z,76.50
2022-11-10T19:46:20.654Z,76.50
2022-11-10T19:48:47.440Z,76.60
2022-11-10T19:51:15.207Z,76.50
2022-11-10T19:53:42.602Z,76.50
2022-11-10T19:56:29.084Z,76.60
2022-11-10T19:58:58.448Z,76.60
2022-11-10T20:01:26.385Z,76.40
2022-11-10T20:03:56.283Z,76.30
2022-11-10T20:06:23.400Z,76.20
2022-11-10T20:08:50.298Z,77.40
2022-11-10T20:11:19.249Z,76.50
2022-11-10T20:13:46.027Z,76.40
2022-11-10T20:16:13.136Z,76.20
2022-11-10T20:18:40.341Z,76.30
2022-11-10T20:21:08.456Z,76.30
2022-11-10T20:23:35.385Z,76.30
2022-11-10T20:26:06.771Z,76.50
2022-11-10T20:28:35.870Z,76.20
2022-11-10T20:31:02.917Z,76.20
2022-11-10T20:33:30.208Z,76.20
2022-11-10T20:36:02.650Z,76.00
2022-11-10T20:38:29.342Z,76.00
2022-11-10T20:41:06.825Z,75.80
2022-11-10T20:43:34.903Z,76.20
2022-11-10T20:46:01.843Z,76.20
2022-11-10T20:48:32.401Z,76.20
2022-11-10T20:50:59.298Z,76.30
2022-11-10T20:53:26.400Z,76.20
2022-11-10T20:56:00.828Z,76.10
2022-11-10T20:58:28.116Z,76.20
2022-11-10T21:00:55.171Z,76.30
2022-11-10T21:03:22.383Z,76.20
2022-11-10T21:05:54.460Z,76.30
2022-11-10T21:08:21.648Z,76.20
2022-11-10T21:10:55.924Z,76.00
2022-11-10T21:13:23.127Z,76.30
2022-11-10T21:15:51.541Z,76.40
2022-11-10T21:18:18.473Z,76.40
2022-11-10T21:20:45.439Z,76.30
2022-11-10T21:23:12.253Z,76.00
2022-11-10T21:25:38.993Z,76.10
2022-11-10T21:28:05.794Z,76.20
2022-11-10T21:30:32.473Z,76.20
2022-11-10T21:32:59.157Z,77.00
2022-11-10T21:35:26.332Z,76.00
2022-11-10T21:37:53.961Z,76.00
2022-11-10T21:40:20.683Z,76.00
2022-11-10T21:42:47.402Z,76.00
2022-11-10T21:45:14.445Z,76.30
2022-11-10T21:47:41.113Z,76.20
2022-11-10T21:50:07.937Z,76.30
2022-11-10T21:52:34.658Z,76.20
2022-11-10T21:55:01.394Z,76.10
2022-11-10T21:57:28.175Z,76.10
2022-11-10T21:59:54.865Z,76.00
2022-11-10T22:02:21.563Z,75.90
2022-11-10T22:04:48.309Z,75.90
2022-11-10T22:07:23.815Z,76.20
2022-11-10T22:10:13.013Z,76.30
2022-11-10T22:12:58.625Z,76.10
2022-11-10T22:15:43.643Z,75.70
2022-11-10T22:18:34.122Z,75.90
2022-11-10T22:21:01.025Z,75.70
2022-11-10T22:23:46.136Z,76.20
2022-11-10T22:26:13.042Z,75.90
2022-11-10T22:28:39.794Z,76.00
2022-11-10T22:31:07.261Z,76.20
2022-11-10T22:33:36.211Z,76.50
2022-11-10T22:36:04.056Z,76.10
2022-11-10T22:38:34.255Z,75.60
2022-11-10T22:41:19.297Z,76.00
2022-11-10T22:44:03.932Z,76.20
2022-11-10T22:46:38.514Z,76.40
2022-11-10T22:49:06.947Z,76.50
2022-11-10T22:51:33.688Z,76.60
2022-11-10T22:54:01.737Z,76.50
2022-11-10T22:56:28.688Z,76.30
2022-11-10T22:58:59.646Z,76.10
2022-11-10T23:01:27.098Z,76.10
2022-11-10T23:03:53.919Z,76.50
2022-11-10T23:06:20.810Z,75.80
2022-11-10T23:08:47.558Z,76.00
2022-11-10T23:11:16.180Z,76.00
2022-11-10T23:13:42.897Z,76.00
2022-11-10T23:16:17.288Z,76.30
2022-11-10T23:18:44.876Z,76.20
2022-11-10T23:21:15.803Z,76.10
2022-11-10T23:23:42.610Z,76.20
2022-11-10T23:26:19.977Z,76.30
2022-11-10T23:28:46.943Z,76.30
2022-11-10T23:31:19.983Z,76.20
2022-11-10T23:33:48.209Z,75.90
2022-11-10T23:36:15.970Z,76.10
2022-11-10T23:38:42.828Z,76.10
2022-11-10T23:41:13.528Z,76.20
2022-11-10T23:43:40.478Z,76.00
2022-11-10T23:46:08.104Z,75.60
2022-11-10T23:48:35.759Z,75.50
2022-11-10T23:51:02.473Z,75.70
2022-11-10T23:53:29.222Z,75.90
2022-11-10T23:55:57.357Z,76.00
2022-11-10T23:58:24.185Z,76.10
